• Join FlightAware (Why Join?)
  • Login
  • US Flag 
04:51AM EDT


 

Airport Tracker/Info


-or-


 

Live Flight TrackerFlight Track Log ✈ SKW6330 ✈ 24-Apr-2013 ✈ KLAX - KPSP

Flight Track Log - Related Links

Times and Time Zones

All times are in EDT time to prevent confusion due to time zone crossing. See the SKW6330 flight status page for this flight to view local times or setup timezone preferences in your user account.

Time Position Orientation Groundspeed Altitude Reporting Facility
EDT Latitude Longitude Course Direction KTS MPH feet Rate Location/Type
09:00PM 33.9167 -118.4667 165° South 184 212 2,500  Level Southern California TRACON
09:00PM 33.9044 -118.4628 165° South 183 211 2,800 1,860 Climbing Los Angeles Center
09:01PM 33.8519 -118.4675 184° South 175 201 4,900 1,740 Climbing Los Angeles Center
09:03PM 33.8144 -118.4558 166° South 173 199 6,500 1,740 Climbing Los Angeles Center
09:04PM 33.7844 -118.3992 122° Southeast 168 193 8,600 1,800 Climbing Los Angeles Center
09:05PM 33.7561 -118.3517 126° Southeast 170 196 10,200 1,560 Climbing Los Angeles Center
09:06PM 33.7258 -118.3025 127° Southeast 178 205 11,900 1,620 Climbing Los Angeles Center
09:07PM 33.7419 -118.2342 74° East 194 223 13,600 1,440 Climbing Los Angeles Center
09:08PM 33.7550 -118.1739 75° East 188 216 14,900 660 Climbing Los Angeles Center
09:09PM 33.7708 -118.1042 75° East 214 246 15,000  Climbing Los Angeles Center
09:10PM 33.7817 -118.0256 81° East 239 275 15,000  Level Los Angeles Center
09:11PM 33.7747 -117.9397 96° East 256 295 15,000  Level Los Angeles Center
09:12PM 33.7678 -117.8522 95° East 264 304 15,000  Level Los Angeles Center
09:13PM 33.7597 -117.7464 95° East 265 305 15,000  Level Los Angeles Center
09:14PM 33.7536 -117.6589 95° East 264 304 15,000  Level Los Angeles Center
09:15PM 33.7461 -117.5692 96° East 270 311 15,000  Level Los Angeles Center
09:16PM 33.7389 -117.4811 96° East 267 307 15,000  Level Los Angeles Center
09:17PM 33.7322 -117.3911 95° East 270 311 15,000  Level Los Angeles Center
09:18PM 33.7250 -117.3011 95° East 273 314 15,000  Level Los Angeles Center
09:19PM 33.7169 -117.2114 96° East 273 314 15,000  Level Los Angeles Center
09:20PM 33.7089 -117.1031 95° East 272 313 15,000  Level Los Angeles Center
09:21PM 33.7014 -117.0133 96° East 271 312 15,000  Level Los Angeles Center
09:22PM 33.6942 -116.9247 96° East 268 308 15,000 -120 Level Los Angeles Center
09:23PM 33.6869 -116.8392 96° East 270 311 14,800 -180 Descending Los Angeles Center
09:24PM 33.6789 -116.7494 96° East 270 311 14,700 -900 Descending Los Angeles Center
09:25PM 33.6728 -116.6708 95° East 240 276 13,000 -1,860 Descending Los Angeles Center
09:26PM 33.6806 -116.5889 83° East 213 245 10,900 -1,800 Descending Los Angeles Center
09:27PM 33.6833 -116.5383 86° East 172 198 9,400 -1,860 Descending Los Angeles Center
09:29PM 33.6476 -116.4400 96° East  Level FlightAware Approximate
09:29PM 33.7000 -116.4333 96° East 155 178 5,300  Level Southern California TRACON
09:30PM 33.7500 -116.4333 360° North 153 176 3,400 -1,800 Descending Southern California TRACON
09:31PM 33.7833 -116.4667 320° Northwest 131 151 1,700 -1,260 Descending Southern California TRACON
09:32PM 33.8000 -116.4833 320° Northwest 125 144 900 -840 Descending Southern California TRACON
09:34PM 33.8167 -116.5000 301° West  Level FlightAware Approximate
09:41PM 33.8297 -116.5067 301° West  Level Estimated